Aviation Digital Data Service (ADDS)

Output produced by METARs form (0030 UTC 29 June 2017)
found at http://aviationweather.gov/adds/metars/
 
KLFT 282353Z VRB04KT 10SM BKN015 OVC060 24/24 A2994 RMK AO2 SLP137 60008 T02440239 10272 20239 56008